sensor_id;sensor_type;location;lat;lon;timestamp;P1;durP1;ratioP1;P2;durP2;ratioP2
9821;SDS011;4950;46.042;14.472;2023-03-23T00:00:52;16.70;;;10.85;;
9821;SDS011;4950;46.042;14.472;2023-03-23T00:03:21;21.75;;;11.52;;
9821;SDS011;4950;46.042;14.472;2023-03-23T00:05:50;21.65;;;12.05;;
9821;SDS011;4950;46.042;14.472;2023-03-23T00:08:17;17.77;;;11.18;;
9821;SDS011;4950;46.042;14.472;2023-03-23T00:10:47;16.07;;;10.43;;
9821;SDS011;4950;46.042;14.472;2023-03-23T00:13:15;20.27;;;11.23;;
9821;SDS011;4950;46.042;14.472;2023-03-23T00:15:44;19.25;;;12.07;;
9821;SDS011;4950;46.042;14.472;2023-03-23T00:18:13;18.65;;;11.60;;
9821;SDS011;4950;46.042;14.472;2023-03-23T00:20:48;18.67;;;10.98;;
9821;SDS011;4950;46.042;14.472;2023-03-23T00:23:15;17.10;;;11.65;;
9821;SDS011;4950;46.042;14.472;2023-03-23T00:28:11;17.30;;;11.90;;
9821;SDS011;4950;46.042;14.472;2023-03-23T00:30:39;23.52;;;13.10;;
9821;SDS011;4950;46.042;14.472;2023-03-23T00:33:07;18.38;;;10.77;;
9821;SDS011;4950;46.042;14.472;2023-03-23T00:35:33;25.55;;;14.15;;
9821;SDS011;4950;46.042;14.472;2023-03-23T00:38:02;25.10;;;13.85;;
9821;SDS011;4950;46.042;14.472;2023-03-23T00:40:29;22.27;;;13.73;;
9821;SDS011;4950;46.042;14.472;2023-03-23T00:42:56;18.70;;;12.63;;
9821;SDS011;4950;46.042;14.472;2023-03-23T00:45:23;24.38;;;13.55;;
9821;SDS011;4950;46.042;14.472;2023-03-23T00:47:50;19.38;;;12.45;;
9821;SDS011;4950;46.042;14.472;2023-03-23T00:50:16;20.33;;;12.38;;
9821;SDS011;4950;46.042;14.472;2023-03-23T00:52:43;20.92;;;12.88;;
9821;SDS011;4950;46.042;14.472;2023-03-23T00:55:11;18.30;;;11.68;;
9821;SDS011;4950;46.042;14.472;2023-03-23T00:57:38;21.40;;;13.27;;
9821;SDS011;4950;46.042;14.472;2023-03-23T01:00:05;20.67;;;12.75;;
9821;SDS011;4950;46.042;14.472;2023-03-23T01:02:36;24.65;;;13.52;;
9821;SDS011;4950;46.042;14.472;2023-03-23T01:05:06;26.67;;;13.60;;
9821;SDS011;4950;46.042;14.472;2023-03-23T01:07:33;18.77;;;12.30;;
9821;SDS011;4950;46.042;14.472;2023-03-23T01:09:59;23.70;;;14.23;;
9821;SDS011;4950;46.042;14.472;2023-03-23T01:12:28;21.27;;;13.85;;
9821;SDS011;4950;46.042;14.472;2023-03-23T01:14:55;22.58;;;13.40;;
9821;SDS011;4950;46.042;14.472;2023-03-23T01:17:21;22.80;;;13.50;;
9821;SDS011;4950;46.042;14.472;2023-03-23T01:19:48;19.20;;;13.00;;
9821;SDS011;4950;46.042;14.472;2023-03-23T01:22:15;24.17;;;14.40;;
9821;SDS011;4950;46.042;14.472;2023-03-23T01:24:41;24.25;;;14.57;;
9821;SDS011;4950;46.042;14.472;2023-03-23T01:27:08;23.95;;;13.90;;
9821;SDS011;4950;46.042;14.472;2023-03-23T01:29:36;23.08;;;13.57;;
9821;SDS011;4950;46.042;14.472;2023-03-23T01:32:03;23.48;;;14.55;;
9821;SDS011;4950;46.042;14.472;2023-03-23T01:34:30;21.25;;;13.90;;
9821;SDS011;4950;46.042;14.472;2023-03-23T01:36:56;20.65;;;14.05;;
9821;SDS011;4950;46.042;14.472;2023-03-23T01:39:23;19.33;;;12.95;;
9821;SDS011;4950;46.042;14.472;2023-03-23T01:41:50;19.08;;;13.02;;
9821;SDS011;4950;46.042;14.472;2023-03-23T01:47:21;19.75;;;12.63;;
9821;SDS011;4950;46.042;14.472;2023-03-23T01:49:51;21.77;;;13.75;;
9821;SDS011;4950;46.042;14.472;2023-03-23T01:52:19;19.35;;;13.13;;
9821;SDS011;4950;46.042;14.472;2023-03-23T01:54:50;19.00;;;13.00;;
9821;SDS011;4950;46.042;14.472;2023-03-23T01:57:21;19.58;;;13.73;;
9821;SDS011;4950;46.042;14.472;2023-03-23T01:59:52;23.17;;;14.88;;
9821;SDS011;4950;46.042;14.472;2023-03-23T02:02:24;21.10;;;14.57;;
9821;SDS011;4950;46.042;14.472;2023-03-23T02:04:51;24.17;;;15.10;;
9821;SDS011;4950;46.042;14.472;2023-03-23T02:07:23;23.40;;;14.32;;
9821;SDS011;4950;46.042;14.472;2023-03-23T02:09:50;23.30;;;14.35;;
9821;SDS011;4950;46.042;14.472;2023-03-23T02:12:17;27.65;;;16.08;;
9821;SDS011;4950;46.042;14.472;2023-03-23T02:14:45;21.45;;;14.82;;
9821;SDS011;4950;46.042;14.472;2023-03-23T02:17:13;23.83;;;14.40;;
9821;SDS011;4950;46.042;14.472;2023-03-23T02:19:55;26.02;;;14.90;;
9821;SDS011;4950;46.042;14.472;2023-03-23T02:22:40;21.13;;;15.32;;
9821;SDS011;4950;46.042;14.472;2023-03-23T02:25:32;20.60;;;13.80;;
9821;SDS011;4950;46.042;14.472;2023-03-23T02:31:21;24.55;;;15.13;;
9821;SDS011;4950;46.042;14.472;2023-03-23T02:33:58;19.80;;;14.52;;
9821;SDS011;4950;46.042;14.472;2023-03-23T02:36:32;23.90;;;15.95;;
9821;SDS011;4950;46.042;14.472;2023-03-23T02:39:05;23.67;;;15.25;;
9821;SDS011;4950;46.042;14.472;2023-03-23T02:41:45;22.00;;;15.13;;
9821;SDS011;4950;46.042;14.472;2023-03-23T02:44:15;24.73;;;16.35;;
9821;SDS011;4950;46.042;14.472;2023-03-23T02:46:43;26.52;;;15.63;;
9821;SDS011;4950;46.042;14.472;2023-03-23T02:49:12;25.00;;;16.38;;
9821;SDS011;4950;46.042;14.472;2023-03-23T02:51:42;23.45;;;14.65;;
9821;SDS011;4950;46.042;14.472;2023-03-23T02:54:12;23.20;;;15.35;;
9821;SDS011;4950;46.042;14.472;2023-03-23T02:56:41;25.02;;;16.73;;
9821;SDS011;4950;46.042;14.472;2023-03-23T02:59:09;21.02;;;14.65;;
9821;SDS011;4950;46.042;14.472;2023-03-23T03:01:50;26.52;;;15.20;;
9821;SDS011;4950;46.042;14.472;2023-03-23T03:04:31;23.83;;;15.13;;
9821;SDS011;4950;46.042;14.472;2023-03-23T03:09:52;22.65;;;15.88;;
9821;SDS011;4950;46.042;14.472;2023-03-23T03:12:24;22.88;;;15.82;;
9821;SDS011;4950;46.042;14.472;2023-03-23T03:15:01;23.00;;;14.98;;
9821;SDS011;4950;46.042;14.472;2023-03-23T03:17:35;23.63;;;14.95;;
9821;SDS011;4950;46.042;14.472;2023-03-23T03:20:10;24.10;;;16.38;;
9821;SDS011;4950;46.042;14.472;2023-03-23T03:22:39;21.77;;;16.08;;
9821;SDS011;4950;46.042;14.472;2023-03-23T03:25:09;29.48;;;16.15;;
9821;SDS011;4950;46.042;14.472;2023-03-23T03:27:38;24.98;;;16.38;;
9821;SDS011;4950;46.042;14.472;2023-03-23T03:30:07;24.83;;;16.35;;
9821;SDS011;4950;46.042;14.472;2023-03-23T03:32:38;24.27;;;16.17;;
9821;SDS011;4950;46.042;14.472;2023-03-23T03:35:13;27.45;;;17.15;;
9821;SDS011;4950;46.042;14.472;2023-03-23T03:37:39;26.42;;;16.17;;
9821;SDS011;4950;46.042;14.472;2023-03-23T03:40:07;25.55;;;17.08;;
9821;SDS011;4950;46.042;14.472;2023-03-23T03:42:37;24.27;;;16.00;;
9821;SDS011;4950;46.042;14.472;2023-03-23T03:45:05;28.83;;;17.77;;
9821;SDS011;4950;46.042;14.472;2023-03-23T03:47:33;23.63;;;15.93;;
9821;SDS011;4950;46.042;14.472;2023-03-23T03:50:00;26.88;;;17.45;;
9821;SDS011;4950;46.042;14.472;2023-03-23T03:52:28;25.20;;;17.02;;
9821;SDS011;4950;46.042;14.472;2023-03-23T03:54:55;22.77;;;15.63;;
9821;SDS011;4950;46.042;14.472;2023-03-23T03:57:22;23.95;;;16.42;;
9821;SDS011;4950;46.042;14.472;2023-03-23T03:59:49;29.02;;;18.00;;
9821;SDS011;4950;46.042;14.472;2023-03-23T04:02:15;27.73;;;17.00;;
9821;SDS011;4950;46.042;14.472;2023-03-23T04:04:45;29.10;;;18.67;;
9821;SDS011;4950;46.042;14.472;2023-03-23T04:07:12;28.98;;;17.38;;
9821;SDS011;4950;46.042;14.472;2023-03-23T04:09:42;31.42;;;17.23;;
9821;SDS011;4950;46.042;14.472;2023-03-23T04:12:11;37.00;;;17.00;;
9821;SDS011;4950;46.042;14.472;2023-03-23T04:14:38;27.65;;;17.50;;
9821;SDS011;4950;46.042;14.472;2023-03-23T04:17:05;25.90;;;17.33;;
9821;SDS011;4950;46.042;14.472;2023-03-23T04:19:32;26.13;;;17.83;;
9821;SDS011;4950;46.042;14.472;2023-03-23T04:21:59;26.20;;;17.85;;
9821;SDS011;4950;46.042;14.472;2023-03-23T04:24:26;33.75;;;18.83;;
9821;SDS011;4950;46.042;14.472;2023-03-23T04:26:57;25.80;;;17.48;;
9821;SDS011;4950;46.042;14.472;2023-03-23T04:29:24;24.98;;;16.85;;
9821;SDS011;4950;46.042;14.472;2023-03-23T04:31:51;27.73;;;18.48;;
9821;SDS011;4950;46.042;14.472;2023-03-23T04:34:20;27.85;;;18.35;;
9821;SDS011;4950;46.042;14.472;2023-03-23T04:36:48;24.40;;;16.88;;
9821;SDS011;4950;46.042;14.472;2023-03-23T04:39:14;25.80;;;17.35;;
9821;SDS011;4950;46.042;14.472;2023-03-23T04:41:41;27.33;;;17.42;;
9821;SDS011;4950;46.042;14.472;2023-03-23T04:44:10;28.00;;;16.58;;
9821;SDS011;4950;46.042;14.472;2023-03-23T04:46:42;24.05;;;16.92;;
9821;SDS011;4950;46.042;14.472;2023-03-23T04:49:14;27.42;;;17.40;;
9821;SDS011;4950;46.042;14.472;2023-03-23T04:51:46;28.10;;;18.73;;
9821;SDS011;4950;46.042;14.472;2023-03-23T04:54:15;26.08;;;17.75;;
9821;SDS011;4950;46.042;14.472;2023-03-23T04:56:43;26.23;;;17.13;;
9821;SDS011;4950;46.042;14.472;2023-03-23T04:59:11;28.45;;;17.08;;
9821;SDS011;4950;46.042;14.472;2023-03-23T05:01:38;30.35;;;17.90;;
9821;SDS011;4950;46.042;14.472;2023-03-23T05:04:10;26.17;;;18.10;;
9821;SDS011;4950;46.042;14.472;2023-03-23T05:06:38;27.60;;;16.95;;
9821;SDS011;4950;46.042;14.472;2023-03-23T05:09:06;32.75;;;17.63;;
9821;SDS011;4950;46.042;14.472;2023-03-23T05:11:32;25.63;;;17.05;;
9821;SDS011;4950;46.042;14.472;2023-03-23T05:13:59;32.00;;;18.25;;
9821;SDS011;4950;46.042;14.472;2023-03-23T05:16:27;26.67;;;16.98;;
9821;SDS011;4950;46.042;14.472;2023-03-23T05:18:55;31.75;;;19.30;;
9821;SDS011;4950;46.042;14.472;2023-03-23T05:21:23;29.33;;;18.27;;
9821;SDS011;4950;46.042;14.472;2023-03-23T05:23:51;30.65;;;17.10;;
9821;SDS011;4950;46.042;14.472;2023-03-23T05:26:20;31.23;;;17.93;;
9821;SDS011;4950;46.042;14.472;2023-03-23T05:28:47;34.75;;;18.90;;
9821;SDS011;4950;46.042;14.472;2023-03-23T05:31:17;26.75;;;17.85;;
9821;SDS011;4950;46.042;14.472;2023-03-23T05:33:46;29.15;;;18.25;;
9821;SDS011;4950;46.042;14.472;2023-03-23T05:36:12;32.05;;;17.83;;
9821;SDS011;4950;46.042;14.472;2023-03-23T05:38:40;27.33;;;17.45;;
9821;SDS011;4950;46.042;14.472;2023-03-23T05:41:10;32.72;;;17.80;;
9821;SDS011;4950;46.042;14.472;2023-03-23T05:43:36;27.38;;;18.38;;
9821;SDS011;4950;46.042;14.472;2023-03-23T05:46:04;24.85;;;17.63;;
9821;SDS011;4950;46.042;14.472;2023-03-23T05:48:30;28.90;;;18.15;;
9821;SDS011;4950;46.042;14.472;2023-03-23T05:50:59;29.38;;;17.65;;
9821;SDS011;4950;46.042;14.472;2023-03-23T05:53:26;36.13;;;17.45;;
9821;SDS011;4950;46.042;14.472;2023-03-23T05:55:57;28.48;;;17.95;;
9821;SDS011;4950;46.042;14.472;2023-03-23T05:58:25;27.80;;;18.17;;
9821;SDS011;4950;46.042;14.472;2023-03-23T06:00:51;29.63;;;18.05;;
9821;SDS011;4950;46.042;14.472;2023-03-23T06:03:18;25.33;;;18.08;;
9821;SDS011;4950;46.042;14.472;2023-03-23T06:05:46;29.25;;;19.60;;
9821;SDS011;4950;46.042;14.472;2023-03-23T06:08:14;43.88;;;23.35;;
9821;SDS011;4950;46.042;14.472;2023-03-23T06:10:40;36.40;;;23.13;;
9821;SDS011;4950;46.042;14.472;2023-03-23T06:13:07;43.30;;;23.42;;
9821;SDS011;4950;46.042;14.472;2023-03-23T06:15:34;34.33;;;21.05;;
9821;SDS011;4950;46.042;14.472;2023-03-23T06:18:01;35.83;;;20.10;;
9821;SDS011;4950;46.042;14.472;2023-03-23T06:20:28;32.08;;;18.63;;
9821;SDS011;4950;46.042;14.472;2023-03-23T06:22:55;32.10;;;20.27;;
9821;SDS011;4950;46.042;14.472;2023-03-23T06:25:24;32.05;;;19.02;;
9821;SDS011;4950;46.042;14.472;2023-03-23T06:27:50;35.30;;;20.10;;
9821;SDS011;4950;46.042;14.472;2023-03-23T06:30:18;31.75;;;19.48;;
9821;SDS011;4950;46.042;14.472;2023-03-23T06:32:45;34.85;;;19.33;;
9821;SDS011;4950;46.042;14.472;2023-03-23T06:35:12;31.55;;;18.27;;
9821;SDS011;4950;46.042;14.472;2023-03-23T06:37:40;31.30;;;17.67;;
9821;SDS011;4950;46.042;14.472;2023-03-23T06:40:07;31.92;;;19.13;;
9821;SDS011;4950;46.042;14.472;2023-03-23T06:42:36;30.45;;;19.38;;
9821;SDS011;4950;46.042;14.472;2023-03-23T06:45:04;32.00;;;19.92;;
9821;SDS011;4950;46.042;14.472;2023-03-23T06:47:32;29.52;;;19.08;;
9821;SDS011;4950;46.042;14.472;2023-03-23T06:49:59;30.85;;;19.45;;
9821;SDS011;4950;46.042;14.472;2023-03-23T06:52:26;38.10;;;19.00;;
9821;SDS011;4950;46.042;14.472;2023-03-23T06:54:53;27.73;;;18.25;;
9821;SDS011;4950;46.042;14.472;2023-03-23T06:57:20;33.05;;;18.55;;
9821;SDS011;4950;46.042;14.472;2023-03-23T06:59:48;34.22;;;18.40;;
9821;SDS011;4950;46.042;14.472;2023-03-23T07:02:15;31.38;;;17.88;;
9821;SDS011;4950;46.042;14.472;2023-03-23T07:04:42;29.27;;;18.17;;
9821;SDS011;4950;46.042;14.472;2023-03-23T07:07:10;32.17;;;20.35;;
9821;SDS011;4950;46.042;14.472;2023-03-23T07:09:39;26.23;;;17.95;;
9821;SDS011;4950;46.042;14.472;2023-03-23T07:12:07;25.35;;;17.67;;
9821;SDS011;4950;46.042;14.472;2023-03-23T07:14:34;27.27;;;17.83;;
9821;SDS011;4950;46.042;14.472;2023-03-23T07:17:03;26.20;;;17.23;;
9821;SDS011;4950;46.042;14.472;2023-03-23T07:19:30;29.15;;;18.90;;
9821;SDS011;4950;46.042;14.472;2023-03-23T07:21:57;25.73;;;17.23;;
9821;SDS011;4950;46.042;14.472;2023-03-23T07:24:24;28.40;;;17.35;;
9821;SDS011;4950;46.042;14.472;2023-03-23T07:26:51;24.30;;;17.05;;
9821;SDS011;4950;46.042;14.472;2023-03-23T07:29:18;35.25;;;18.80;;
9821;SDS011;4950;46.042;14.472;2023-03-23T07:31:45;31.38;;;17.73;;
9821;SDS011;4950;46.042;14.472;2023-03-23T07:34:13;28.23;;;18.10;;
9821;SDS011;4950;46.042;14.472;2023-03-23T07:36:40;31.63;;;17.90;;
9821;SDS011;4950;46.042;14.472;2023-03-23T07:39:06;24.73;;;16.60;;
9821;SDS011;4950;46.042;14.472;2023-03-23T07:41:33;30.08;;;17.40;;
9821;SDS011;4950;46.042;14.472;2023-03-23T07:44:00;29.35;;;18.38;;
9821;SDS011;4950;46.042;14.472;2023-03-23T07:46:27;27.67;;;17.20;;
9821;SDS011;4950;46.042;14.472;2023-03-23T07:48:54;28.33;;;16.50;;
9821;SDS011;4950;46.042;14.472;2023-03-23T07:51:23;25.27;;;16.23;;
9821;SDS011;4950;46.042;14.472;2023-03-23T07:53:50;25.23;;;17.98;;
9821;SDS011;4950;46.042;14.472;2023-03-23T07:56:17;41.00;;;17.50;;
9821;SDS011;4950;46.042;14.472;2023-03-23T07:58:44;28.60;;;17.67;;
9821;SDS011;4950;46.042;14.472;2023-03-23T08:01:11;31.85;;;18.02;;
9821;SDS011;4950;46.042;14.472;2023-03-23T08:03:38;26.42;;;16.65;;
9821;SDS011;4950;46.042;14.472;2023-03-23T08:06:05;29.00;;;16.05;;
9821;SDS011;4950;46.042;14.472;2023-03-23T08:08:34;28.05;;;17.20;;
9821;SDS011;4950;46.042;14.472;2023-03-23T08:11:02;26.83;;;17.30;;
9821;SDS011;4950;46.042;14.472;2023-03-23T08:13:29;22.77;;;15.45;;
9821;SDS011;4950;46.042;14.472;2023-03-23T08:15:56;25.65;;;16.35;;
9821;SDS011;4950;46.042;14.472;2023-03-23T08:18:22;27.20;;;16.30;;
9821;SDS011;4950;46.042;14.472;2023-03-23T08:20:49;27.95;;;17.13;;
9821;SDS011;4950;46.042;14.472;2023-03-23T08:23:18;26.90;;;16.30;;
9821;SDS011;4950;46.042;14.472;2023-03-23T08:25:46;24.52;;;14.43;;
9821;SDS011;4950;46.042;14.472;2023-03-23T08:28:13;32.15;;;15.30;;
9821;SDS011;4950;46.042;14.472;2023-03-23T08:30:40;22.98;;;16.00;;
9821;SDS011;4950;46.042;14.472;2023-03-23T08:33:07;25.10;;;15.05;;
9821;SDS011;4950;46.042;14.472;2023-03-23T08:38:03;24.60;;;14.35;;
9821;SDS011;4950;46.042;14.472;2023-03-23T08:40:31;22.73;;;13.68;;
9821;SDS011;4950;46.042;14.472;2023-03-23T08:42:59;19.33;;;12.95;;
9821;SDS011;4950;46.042;14.472;2023-03-23T08:45:26;25.25;;;15.00;;
9821;SDS011;4950;46.042;14.472;2023-03-23T08:47:53;24.30;;;14.52;;
9821;SDS011;4950;46.042;14.472;2023-03-23T08:50:21;23.52;;;14.43;;
9821;SDS011;4950;46.042;14.472;2023-03-23T08:52:49;22.33;;;14.52;;
9821;SDS011;4950;46.042;14.472;2023-03-23T08:55:16;22.77;;;14.48;;
9821;SDS011;4950;46.042;14.472;2023-03-23T08:57:43;26.45;;;14.07;;
9821;SDS011;4950;46.042;14.472;2023-03-23T09:00:13;24.90;;;14.68;;
9821;SDS011;4950;46.042;14.472;2023-03-23T09:02:43;28.35;;;14.63;;
9821;SDS011;4950;46.042;14.472;2023-03-23T09:07:40;19.48;;;12.82;;
9821;SDS011;4950;46.042;14.472;2023-03-23T09:10:08;23.70;;;13.10;;
9821;SDS011;4950;46.042;14.472;2023-03-23T09:12:36;21.23;;;12.65;;
9821;SDS011;4950;46.042;14.472;2023-03-23T09:15:03;29.27;;;12.95;;
9821;SDS011;4950;46.042;14.472;2023-03-23T09:17:35;23.42;;;13.63;;
9821;SDS011;4950;46.042;14.472;2023-03-23T09:20:04;26.17;;;13.25;;
9821;SDS011;4950;46.042;14.472;2023-03-23T09:22:35;18.13;;;12.52;;
9821;SDS011;4950;46.042;14.472;2023-03-23T09:25:03;17.55;;;12.52;;
9821;SDS011;4950;46.042;14.472;2023-03-23T09:27:31;23.67;;;12.25;;
9821;SDS011;4950;46.042;14.472;2023-03-23T09:30:01;25.45;;;12.90;;
9821;SDS011;4950;46.042;14.472;2023-03-23T09:32:31;19.58;;;12.27;;
9821;SDS011;4950;46.042;14.472;2023-03-23T09:35:00;23.45;;;11.63;;
9821;SDS011;4950;46.042;14.472;2023-03-23T09:37:27;18.87;;;11.23;;
9821;SDS011;4950;46.042;14.472;2023-03-23T09:39:53;26.35;;;11.48;;
9821;SDS011;4950;46.042;14.472;2023-03-23T09:42:24;16.63;;;10.80;;
9821;SDS011;4950;46.042;14.472;2023-03-23T09:45:04;15.15;;;10.50;;
9821;SDS011;4950;46.042;14.472;2023-03-23T09:47:40;19.52;;;10.77;;
9821;SDS011;4950;46.042;14.472;2023-03-23T09:50:16;17.98;;;10.02;;
9821;SDS011;4950;46.042;14.472;2023-03-23T09:52:46;19.00;;;11.07;;
9821;SDS011;4950;46.042;14.472;2023-03-23T09:55:17;16.58;;;10.30;;
9821;SDS011;4950;46.042;14.472;2023-03-23T09:57:47;19.00;;;10.82;;
9821;SDS011;4950;46.042;14.472;2023-03-23T10:00:20;22.00;;;10.57;;
9821;SDS011;4950;46.042;14.472;2023-03-23T10:02:52;18.77;;;11.15;;
9821;SDS011;4950;46.042;14.472;2023-03-23T10:05:32;22.30;;;9.85;;
9821;SDS011;4950;46.042;14.472;2023-03-23T10:08:01;17.63;;;10.40;;
9821;SDS011;4950;46.042;14.472;2023-03-23T10:10:35;21.00;;;10.88;;
9821;SDS011;4950;46.042;14.472;2023-03-23T10:13:09;20.90;;;10.18;;
9821;SDS011;4950;46.042;14.472;2023-03-23T10:15:46;16.75;;;11.07;;
9821;SDS011;4950;46.042;14.472;2023-03-23T10:18:15;18.88;;;10.35;;
9821;SDS011;4950;46.042;14.472;2023-03-23T10:20:48;15.07;;;9.65;;
9821;SDS011;4950;46.042;14.472;2023-03-23T10:23:35;18.50;;;8.38;;
9821;SDS011;4950;46.042;14.472;2023-03-23T10:26:11;15.13;;;6.72;;
9821;SDS011;4950;46.042;14.472;2023-03-23T10:28:46;14.27;;;7.60;;
9821;SDS011;4950;46.042;14.472;2023-03-23T10:31:18;13.88;;;7.13;;
9821;SDS011;4950;46.042;14.472;2023-03-23T10:33:49;12.40;;;7.70;;
9821;SDS011;4950;46.042;14.472;2023-03-23T10:36:21;14.60;;;8.02;;
9821;SDS011;4950;46.042;14.472;2023-03-23T10:38:53;13.48;;;7.13;;
9821;SDS011;4950;46.042;14.472;2023-03-23T10:41:24;15.00;;;7.90;;
9821;SDS011;4950;46.042;14.472;2023-03-23T10:43:51;15.05;;;7.88;;
9821;SDS011;4950;46.042;14.472;2023-03-23T10:46:26;13.95;;;6.90;;
9821;SDS011;4950;46.042;14.472;2023-03-23T10:49:01;13.23;;;7.35;;
9821;SDS011;4950;46.042;14.472;2023-03-23T10:51:32;16.65;;;7.22;;
9821;SDS011;4950;46.042;14.472;2023-03-23T10:54:01;13.93;;;6.97;;
9821;SDS011;4950;46.042;14.472;2023-03-23T10:56:35;16.15;;;6.10;;
9821;SDS011;4950;46.042;14.472;2023-03-23T11:01:53;9.85;;;6.30;;
9821;SDS011;4950;46.042;14.472;2023-03-23T11:06:51;10.50;;;6.25;;
9821;SDS011;4950;46.042;14.472;2023-03-23T11:09:20;9.70;;;5.53;;
9821;SDS011;4950;46.042;14.472;2023-03-23T11:11:48;10.63;;;5.70;;
9821;SDS011;4950;46.042;14.472;2023-03-23T11:14:17;9.65;;;6.35;;
9821;SDS011;4950;46.042;14.472;2023-03-23T11:19:21;14.32;;;6.43;;
9821;SDS011;4950;46.042;14.472;2023-03-23T11:21:52;17.30;;;6.05;;
9821;SDS011;4950;46.042;14.472;2023-03-23T11:24:21;10.52;;;5.68;;
9821;SDS011;4950;46.042;14.472;2023-03-23T11:26:51;10.40;;;6.03;;
9821;SDS011;4950;46.042;14.472;2023-03-23T11:29:19;9.68;;;5.80;;
9821;SDS011;4950;46.042;14.472;2023-03-23T11:31:49;14.05;;;6.20;;
9821;SDS011;4950;46.042;14.472;2023-03-23T11:34:18;8.48;;;5.10;;
9821;SDS011;4950;46.042;14.472;2023-03-23T11:36:48;12.95;;;5.57;;
9821;SDS011;4950;46.042;14.472;2023-03-23T11:39:23;9.20;;;5.35;;
9821;SDS011;4950;46.042;14.472;2023-03-23T11:41:51;11.07;;;4.53;;
9821;SDS011;4950;46.042;14.472;2023-03-23T11:44:20;8.43;;;4.70;;
9821;SDS011;4950;46.042;14.472;2023-03-23T11:46:49;11.23;;;5.85;;
9821;SDS011;4950;46.042;14.472;2023-03-23T11:49:31;9.38;;;5.43;;
9821;SDS011;4950;46.042;14.472;2023-03-23T11:52:07;10.70;;;4.93;;
9821;SDS011;4950;46.042;14.472;2023-03-23T11:54:43;9.60;;;4.88;;
9821;SDS011;4950;46.042;14.472;2023-03-23T11:57:13;7.20;;;4.63;;
9821;SDS011;4950;46.042;14.472;2023-03-23T11:59:41;13.73;;;4.40;;
9821;SDS011;4950;46.042;14.472;2023-03-23T12:02:23;11.65;;;4.20;;
9821;SDS011;4950;46.042;14.472;2023-03-23T12:05:15;14.27;;;4.65;;
9821;SDS011;4950;46.042;14.472;2023-03-23T12:08:09;9.43;;;4.28;;
9821;SDS011;4950;46.042;14.472;2023-03-23T12:10:53;9.20;;;4.20;;
9821;SDS011;4950;46.042;14.472;2023-03-23T12:16:23;8.25;;;3.53;;
9821;SDS011;4950;46.042;14.472;2023-03-23T12:18:58;9.48;;;4.13;;
9821;SDS011;4950;46.042;14.472;2023-03-23T12:21:35;9.27;;;4.57;;
9821;SDS011;4950;46.042;14.472;2023-03-23T12:24:12;7.68;;;4.47;;
9821;SDS011;4950;46.042;14.472;2023-03-23T12:26:52;9.55;;;4.20;;
9821;SDS011;4950;46.042;14.472;2023-03-23T12:29:26;12.45;;;3.92;;
9821;SDS011;4950;46.042;14.472;2023-03-23T12:32:16;9.52;;;4.07;;
9821;SDS011;4950;46.042;14.472;2023-03-23T12:34:54;8.65;;;4.03;;
9821;SDS011;4950;46.042;14.472;2023-03-23T12:37:34;10.73;;;4.40;;
9821;SDS011;4950;46.042;14.472;2023-03-23T12:40:20;8.90;;;4.90;;
9821;SDS011;4950;46.042;14.472;2023-03-23T12:43:01;7.68;;;4.25;;
9821;SDS011;4950;46.042;14.472;2023-03-23T12:45:43;9.00;;;4.72;;
9821;SDS011;4950;46.042;14.472;2023-03-23T12:48:26;8.88;;;4.32;;
9821;SDS011;4950;46.042;14.472;2023-03-23T12:51:08;11.55;;;4.40;;
9821;SDS011;4950;46.042;14.472;2023-03-23T12:53:42;12.30;;;4.43;;
9821;SDS011;4950;46.042;14.472;2023-03-23T12:56:15;8.55;;;3.92;;
9821;SDS011;4950;46.042;14.472;2023-03-23T12:58:47;11.05;;;4.28;;
9821;SDS011;4950;46.042;14.472;2023-03-23T13:01:21;10.85;;;4.38;;
9821;SDS011;4950;46.042;14.472;2023-03-23T13:03:53;7.43;;;3.78;;
9821;SDS011;4950;46.042;14.472;2023-03-23T13:06:26;7.85;;;3.70;;
9821;SDS011;4950;46.042;14.472;2023-03-23T13:08:59;8.35;;;4.22;;
9821;SDS011;4950;46.042;14.472;2023-03-23T13:11:32;7.78;;;4.00;;
9821;SDS011;4950;46.042;14.472;2023-03-23T13:14:06;9.15;;;3.72;;
9821;SDS011;4950;46.042;14.472;2023-03-23T13:16:49;8.27;;;3.65;;
9821;SDS011;4950;46.042;14.472;2023-03-23T13:19:23;10.35;;;3.75;;
9821;SDS011;4950;46.042;14.472;2023-03-23T13:21:58;7.68;;;3.83;;
9821;SDS011;4950;46.042;14.472;2023-03-23T13:24:32;7.47;;;3.70;;
9821;SDS011;4950;46.042;14.472;2023-03-23T13:27:04;7.15;;;3.38;;
9821;SDS011;4950;46.042;14.472;2023-03-23T13:29:33;9.93;;;4.60;;
9821;SDS011;4950;46.042;14.472;2023-03-23T13:32:04;8.05;;;4.03;;
9821;SDS011;4950;46.042;14.472;2023-03-23T13:34:34;13.10;;;4.70;;
9821;SDS011;4950;46.042;14.472;2023-03-23T13:37:02;8.73;;;3.65;;
9821;SDS011;4950;46.042;14.472;2023-03-23T13:39:32;6.28;;;3.58;;
9821;SDS011;4950;46.042;14.472;2023-03-23T13:42:03;6.78;;;3.78;;
9821;SDS011;4950;46.042;14.472;2023-03-23T13:44:43;7.05;;;3.80;;
9821;SDS011;4950;46.042;14.472;2023-03-23T13:47:26;8.10;;;3.70;;
9821;SDS011;4950;46.042;14.472;2023-03-23T13:49:56;5.63;;;3.40;;
9821;SDS011;4950;46.042;14.472;2023-03-23T13:52:35;6.68;;;3.28;;
9821;SDS011;4950;46.042;14.472;2023-03-23T13:55:18;10.10;;;4.53;;
9821;SDS011;4950;46.042;14.472;2023-03-23T13:57:51;5.45;;;3.67;;
9821;SDS011;4950;46.042;14.472;2023-03-23T14:00:36;6.55;;;3.83;;
9821;SDS011;4950;46.042;14.472;2023-03-23T14:03:12;5.68;;;3.50;;
9821;SDS011;4950;46.042;14.472;2023-03-23T14:05:43;11.18;;;3.50;;
9821;SDS011;4950;46.042;14.472;2023-03-23T14:08:13;6.57;;;3.35;;
9821;SDS011;4950;46.042;14.472;2023-03-23T14:10:48;8.93;;;3.58;;
9821;SDS011;4950;46.042;14.472;2023-03-23T14:13:19;8.30;;;3.75;;
9821;SDS011;4950;46.042;14.472;2023-03-23T14:15:58;8.02;;;3.63;;
9821;SDS011;4950;46.042;14.472;2023-03-23T14:18:29;7.75;;;3.67;;
9821;SDS011;4950;46.042;14.472;2023-03-23T14:20:58;12.10;;;3.90;;
9821;SDS011;4950;46.042;14.472;2023-03-23T14:23:25;12.40;;;4.47;;
9821;SDS011;4950;46.042;14.472;2023-03-23T14:25:56;11.07;;;4.53;;
9821;SDS011;4950;46.042;14.472;2023-03-23T14:28:30;13.63;;;4.50;;
9821;SDS011;4950;46.042;14.472;2023-03-23T14:30:59;10.13;;;4.30;;
9821;SDS011;4950;46.042;14.472;2023-03-23T14:33:26;9.73;;;4.07;;
9821;SDS011;4950;46.042;14.472;2023-03-23T14:35:53;8.02;;;4.03;;
9821;SDS011;4950;46.042;14.472;2023-03-23T14:38:23;9.93;;;3.90;;
9821;SDS011;4950;46.042;14.472;2023-03-23T14:40:59;9.50;;;4.03;;
9821;SDS011;4950;46.042;14.472;2023-03-23T14:43:28;11.07;;;4.45;;
9821;SDS011;4950;46.042;14.472;2023-03-23T14:45:56;7.93;;;4.20;;
9821;SDS011;4950;46.042;14.472;2023-03-23T14:48:27;14.43;;;4.40;;
9821;SDS011;4950;46.042;14.472;2023-03-23T14:50:56;9.37;;;3.47;;
9821;SDS011;4950;46.042;14.472;2023-03-23T14:55:55;11.02;;;4.13;;
9821;SDS011;4950;46.042;14.472;2023-03-23T14:58:27;11.43;;;4.20;;
9821;SDS011;4950;46.042;14.472;2023-03-23T15:00:56;10.45;;;3.70;;
9821;SDS011;4950;46.042;14.472;2023-03-23T15:03:28;8.65;;;4.22;;
9821;SDS011;4950;46.042;14.472;2023-03-23T15:05:59;8.05;;;3.20;;
9821;SDS011;4950;46.042;14.472;2023-03-23T15:08:30;10.13;;;3.92;;
9821;SDS011;4950;46.042;14.472;2023-03-23T15:11:02;15.20;;;3.83;;
9821;SDS011;4950;46.042;14.472;2023-03-23T15:13:32;10.10;;;3.63;;
9821;SDS011;4950;46.042;14.472;2023-03-23T15:16:11;6.70;;;3.50;;
9821;SDS011;4950;46.042;14.472;2023-03-23T15:18:46;9.38;;;3.45;;
9821;SDS011;4950;46.042;14.472;2023-03-23T15:21:19;6.15;;;2.92;;
9821;SDS011;4950;46.042;14.472;2023-03-23T15:23:50;7.45;;;2.90;;
9821;SDS011;4950;46.042;14.472;2023-03-23T15:26:28;5.78;;;2.90;;
9821;SDS011;4950;46.042;14.472;2023-03-23T15:31:39;7.47;;;3.30;;